Time;durP1;ratioP1;P1;durP2;ratioP2;P2;SDS_P1;SDS_P2;PMS_P1;PMS_P2;Temp;Humidity;BMP_temperature;BMP_pressure;BME280_temperature;BME280_humidity;BME280_pressure;Samples;Min_cycle;Max_cycle;Signal;HPM_P1;HPM_P2
2021/09/04 00:00:21;;;;;;;;;22.75;21.75;;;;;;;;4992715;28;45441;-73
2021/09/04 00:02:46;;;;;;;;;21.75;21.25;;;;;;;;4992900;28;45445;-74
2021/09/04 00:05:11;;;;;;;;;19.25;18.50;;;;;;;;4994973;28;45567;-74
2021/09/04 00:07:37;;;;;;;;;16.00;16.00;;;;;;;;4992657;28;47290;-73
2021/09/04 00:10:02;;;;;;;;;22.00;19.25;;;;;;;;4992680;28;45353;-73
2021/09/04 00:12:28;;;;;;;;;29.75;24.75;;;;;;;;4992721;28;45336;-74
2021/09/04 00:14:54;;;;;;;;;32.25;29.00;;;;;;;;4977209;28;45443;-75
2021/09/04 00:17:19;;;;;;;;;41.25;35.00;;;;;;;;4994348;28;46113;-75
2021/09/04 00:19:44;;;;;;;;;32.25;30.50;;;;;;;;4992457;28;45305;-73
2021/09/04 00:22:10;;;;;;;;;30.25;28.25;;;;;;;;4992211;28;45347;-74
2021/09/04 00:24:35;;;;;;;;;35.25;31.50;;;;;;;;4992239;28;45366;-74
2021/09/04 00:27:00;;;;;;;;;33.75;30.75;;;;;;;;4991603;28;45864;-73
2021/09/04 00:29:26;;;;;;;;;36.25;31.00;;;;;;;;4992841;28;45367;-74
2021/09/04 00:31:51;;;;;;;;;27.25;26.50;;;;;;;;4994070;28;45440;-74
2021/09/04 00:34:16;;;;;;;;;24.50;24.25;;;;;;;;4991380;28;45488;-74
2021/09/04 00:36:42;;;;;;;;;25.50;23.25;;;;;;;;4992099;28;46089;-74
2021/09/04 00:39:07;;;;;;;;;19.00;15.25;;;;;;;;4992249;28;45292;-74
2021/09/04 00:41:34;;;;;;;;;17.50;17.50;;;;;;;;4992947;28;45795;-74
2021/09/04 00:44:00;;;;;;;;;15.00;14.75;;;;;;;;4993649;28;45558;-74
2021/09/04 00:46:25;;;;;;;;;17.75;14.25;;;;;;;;4991575;28;45721;-74
2021/09/04 00:48:50;;;;;;;;;16.25;16.00;;;;;;;;4991650;28;45453;-74
2021/09/04 00:51:16;;;;;;;;;16.25;14.25;;;;;;;;4992538;28;45464;-74
2021/09/04 00:53:41;;;;;;;;;15.25;15.25;;;;;;;;4992334;28;45432;-74
2021/09/04 00:56:06;;;;;;;;;15.75;15.00;;;;;;;;4993510;28;47189;-74
2021/09/04 00:58:32;;;;;;;;;17.25;16.50;;;;;;;;4991854;28;45319;-74
2021/09/04 01:00:58;;;;;;;;;17.50;15.00;;;;;;;;4991818;28;46057;-74
2021/09/04 01:03:23;;;;;;;;;14.75;13.75;;;;;;;;4991993;28;45395;-74
2021/09/04 01:05:49;;;;;;;;;16.75;14.00;;;;;;;;4991845;28;46032;-74
2021/09/04 01:08:15;;;;;;;;;14.75;14.25;;;;;;;;4993954;28;45413;-72
2021/09/04 01:10:40;;;;;;;;;16.25;15.00;;;;;;;;4990143;28;45525;-73
2021/09/04 01:13:05;;;;;;;;;17.00;15.50;;;;;;;;4993338;28;45453;-73
2021/09/04 01:15:31;;;;;;;;;14.00;13.50;;;;;;;;4993660;28;46319;-73
2021/09/04 01:18:00;;;;;;;;;23.75;18.00;;;;;;;;4993371;28;45824;-74
2021/09/04 01:20:25;;;;;;;;;17.75;14.25;;;;;;;;4976794;28;45419;-74
2021/09/04 01:22:50;;;;;;;;;16.75;15.75;;;;;;;;4990455;28;45374;-74
2021/09/04 01:25:21;;;;;;;;;18.00;17.75;;;;;;;;4991359;28;45552;-74
2021/09/04 01:27:46;;;;;;;;;17.75;17.25;;;;;;;;4991516;28;45578;-74
2021/09/04 01:30:11;;;;;;;;;19.50;18.50;;;;;;;;4991666;28;45533;-74
2021/09/04 01:32:37;;;;;;;;;14.00;13.75;;;;;;;;4992290;28;45434;-74
2021/09/04 01:35:03;;;;;;;;;20.75;19.00;;;;;;;;4993086;28;46333;-73
2021/09/04 01:37:29;;;;;;;;;15.00;15.00;;;;;;;;4991364;28;45283;-74
2021/09/04 01:39:54;;;;;;;;;19.00;17.25;;;;;;;;4990700;28;45365;-73
2021/09/04 01:42:19;;;;;;;;;16.25;14.25;;;;;;;;4991366;28;45517;-73
2021/09/04 01:44:44;;;;;;;;;14.50;12.25;;;;;;;;4991211;28;47148;-73
2021/09/04 01:47:09;;;;;;;;;17.50;16.25;;;;;;;;4993152;28;45503;-73
2021/09/04 01:49:36;;;;;;;;;16.50;16.25;;;;;;;;4989644;28;45540;-74
2021/09/04 01:52:01;;;;;;;;;15.25;15.25;;;;;;;;4989851;28;45462;-73
2021/09/04 01:54:27;;;;;;;;;16.00;15.50;;;;;;;;4990806;28;45355;-74
2021/09/04 01:56:52;;;;;;;;;15.75;15.75;;;;;;;;4993199;28;45445;-73
2021/09/04 01:59:18;;;;;;;;;18.00;16.25;;;;;;;;4993711;28;45550;-73
2021/09/04 02:01:43;;;;;;;;;16.50;16.25;;;;;;;;4991449;28;45324;-73
2021/09/04 02:04:08;;;;;;;;;15.25;14.00;;;;;;;;4990986;28;46732;-74
2021/09/04 02:06:33;;;;;;;;;16.75;16.00;;;;;;;;4990968;28;45431;-75
2021/09/04 02:08:59;;;;;;;;;15.50;14.25;;;;;;;;4991050;28;45565;-73
2021/09/04 02:11:24;;;;;;;;;18.00;15.25;;;;;;;;4993453;28;45354;-73
2021/09/04 02:13:49;;;;;;;;;19.25;15.75;;;;;;;;4990898;28;46430;-73
2021/09/04 02:16:14;;;;;;;;;18.00;15.00;;;;;;;;4973546;28;45472;-73
2021/09/04 02:18:40;;;;;;;;;14.75;14.75;;;;;;;;4991240;28;45451;-73
2021/09/04 02:21:05;;;;;;;;;15.00;12.75;;;;;;;;4973719;28;45479;-74
2021/09/04 02:23:30;;;;;;;;;17.25;14.50;;;;;;;;4992050;28;46008;-75
2021/09/04 02:25:55;;;;;;;;;19.00;16.25;;;;;;;;4991732;28;45479;-74
2021/09/04 02:28:20;;;;;;;;;17.50;16.25;;;;;;;;4989236;28;45390;-73
2021/09/04 02:30:46;;;;;;;;;15.75;14.00;;;;;;;;4989456;28;45565;-75
2021/09/04 02:33:11;;;;;;;;;17.50;16.00;;;;;;;;4990745;28;47423;-75
2021/09/04 02:35:36;;;;;;;;;18.00;15.00;;;;;;;;4991501;28;45516;-74
2021/09/04 02:38:02;;;;;;;;;18.00;17.25;;;;;;;;4991958;28;45324;-73
2021/09/04 02:40:27;;;;;;;;;15.25;15.25;;;;;;;;4991333;28;45541;-74
2021/09/04 02:42:53;;;;;;;;;15.50;14.00;;;;;;;;4990676;28;46372;-75
2021/09/04 02:45:18;;;;;;;;;15.00;13.50;;;;;;;;4990591;28;45551;-74
2021/09/04 02:47:43;;;;;;;;;18.50;17.00;;;;;;;;4990745;28;45515;-74
2021/09/04 02:50:09;;;;;;;;;17.50;15.75;;;;;;;;4992092;28;45441;-75
2021/09/04 02:52:34;;;;;;;;;16.25;14.75;;;;;;;;4989595;28;45942;-75
2021/09/04 02:54:59;;;;;;;;;17.25;17.25;;;;;;;;4990655;28;45514;-74
2021/09/04 02:57:24;;;;;;;;;18.25;15.25;;;;;;;;4990477;28;45481;-75
2021/09/04 02:59:49;;;;;;;;;14.75;12.75;;;;;;;;4990733;28;45490;-75
2021/09/04 03:02:15;;;;;;;;;17.50;15.25;;;;;;;;4992364;28;46112;-74
2021/09/04 03:04:40;;;;;;;;;15.75;14.75;;;;;;;;4990279;28;45504;-75
2021/09/04 03:07:05;;;;;;;;;15.75;12.75;;;;;;;;4988608;28;45473;-75
2021/09/04 03:09:31;;;;;;;;;20.50;18.25;;;;;;;;4988847;28;45268;-73
2021/09/04 03:11:56;;;;;;;;;13.75;13.75;;;;;;;;4990030;28;47796;-75
2021/09/04 03:14:21;;;;;;;;;15.00;15.00;;;;;;;;4992118;28;45342;-75
2021/09/04 03:16:46;;;;;;;;;19.50;16.75;;;;;;;;4989897;28;45330;-75
2021/09/04 03:19:12;;;;;;;;;20.75;17.75;;;;;;;;4990453;28;45456;-75
2021/09/04 03:21:37;;;;;;;;;16.50;12.25;;;;;;;;4992187;28;46016;-75
2021/09/04 03:24:02;;;;;;;;;19.25;17.25;;;;;;;;4991071;28;45431;-75
2021/09/04 03:26:28;;;;;;;;;16.50;16.25;;;;;;;;4991731;28;45539;-73
2021/09/04 03:28:53;;;;;;;;;19.25;16.00;;;;;;;;4990946;28;45261;-73
2021/09/04 03:31:18;;;;;;;;;15.75;15.50;;;;;;;;4990093;28;45473;-75
2021/09/04 03:33:43;;;;;;;;;14.75;14.75;;;;;;;;4972472;28;45390;-75
2021/09/04 03:36:08;;;;;;;;;17.00;16.00;;;;;;;;4989741;28;45291;-75
2021/09/04 03:38:34;;;;;;;;;18.50;15.50;;;;;;;;4990802;28;45355;-74
2021/09/04 03:40:59;;;;;;;;;19.50;16.00;;;;;;;;4991207;28;45379;-75
2021/09/04 03:43:24;;;;;;;;;14.50;14.50;;;;;;;;4989384;28;45472;-74
2021/09/04 03:45:49;;;;;;;;;16.50;16.50;;;;;;;;4988321;28;45297;-74
2021/09/04 03:48:14;;;;;;;;;21.75;19.25;;;;;;;;4988802;28;45149;-74
2021/09/04 03:50:40;;;;;;;;;18.75;18.00;;;;;;;;4989377;28;47278;-74
2021/09/04 03:53:05;;;;;;;;;19.25;19.00;;;;;;;;4991596;28;46558;-74
2021/09/04 03:55:30;;;;;;;;;21.00;19.50;;;;;;;;4989269;28;45405;-74
2021/09/04 03:57:55;;;;;;;;;18.50;16.00;;;;;;;;4989605;28;45456;-74
2021/09/04 04:00:21;;;;;;;;;22.50;19.00;;;;;;;;4989432;28;47219;-74
2021/09/04 04:02:46;;;;;;;;;18.00;17.00;;;;;;;;4993437;28;45318;-74
2021/09/04 04:05:11;;;;;;;;;20.25;15.25;;;;;;;;4996222;28;45223;-74
2021/09/04 04:07:36;;;;;;;;;15.25;15.25;;;;;;;;4992257;28;45387;-75
2021/09/04 04:10:02;;;;;;;;;19.00;17.00;;;;;;;;4991815;28;46295;-75
2021/09/04 04:12:28;;;;;;;;;17.00;15.75;;;;;;;;4992137;28;45294;-75
2021/09/04 04:14:54;;;;;;;;;17.50;16.50;;;;;;;;4992533;28;45300;-74
2021/09/04 04:17:19;;;;;;;;;24.75;21.00;;;;;;;;4993865;28;45595;-74
2021/09/04 04:19:44;;;;;;;;;25.25;23.00;;;;;;;;4991834;28;45428;-74
2021/09/04 04:22:09;;;;;;;;;15.25;14.25;;;;;;;;4973715;28;45522;-74
2021/09/04 04:24:34;;;;;;;;;19.25;18.50;;;;;;;;4990526;28;45473;-75
2021/09/04 04:27:01;;;;;;;;;20.50;16.00;;;;;;;;4990924;28;45316;-75
2021/09/04 04:29:27;;;;;;;;;16.25;15.25;;;;;;;;4993160;28;45385;-74
2021/09/04 04:31:52;;;;;;;;;20.00;18.75;;;;;;;;4992172;28;45414;-74
2021/09/04 04:34:17;;;;;;;;;19.75;19.25;;;;;;;;4991748;28;45553;-74
2021/09/04 04:36:42;;;;;;;;;27.00;22.00;;;;;;;;4991960;28;45387;-74
2021/09/04 04:39:07;;;;;;;;;22.25;19.25;;;;;;;;4992105;28;45362;-73
2021/09/04 04:41:33;;;;;;;;;26.75;25.00;;;;;;;;4992976;28;45443;-75
2021/09/04 04:43:58;;;;;;;;;20.50;20.50;;;;;;;;4994751;28;45541;-75
2021/09/04 04:46:23;;;;;;;;;24.50;23.50;;;;;;;;4994750;28;45311;-75
2021/09/04 04:48:48;;;;;;;;;21.75;21.75;;;;;;;;4992023;28;45455;-75
2021/09/04 04:51:13;;;;;;;;;20.50;20.50;;;;;;;;4992086;28;45529;-75
2021/09/04 04:53:39;;;;;;;;;21.25;19.00;;;;;;;;4991971;28;45674;-75
2021/09/04 04:56:05;;;;;;;;;22.00;20.50;;;;;;;;4991612;28;45448;-75
2021/09/04 04:58:30;;;;;;;;;22.00;19.50;;;;;;;;4973969;28;46079;-74
2021/09/04 05:00:55;;;;;;;;;23.50;20.75;;;;;;;;4991323;28;45311;-74
2021/09/04 05:03:20;;;;;;;;;23.50;20.00;;;;;;;;4989763;28;45364;-74
2021/09/04 05:05:45;;;;;;;;;16.25;15.50;;;;;;;;4973836;28;45318;-73
2021/09/04 05:08:11;;;;;;;;;23.25;21.00;;;;;;;;4992482;28;45194;-74
2021/09/04 05:10:36;;;;;;;;;18.25;17.00;;;;;;;;4991195;28;45464;-75
2021/09/04 05:13:01;;;;;;;;;19.25;17.50;;;;;;;;4991430;28;45409;-74
2021/09/04 05:15:26;;;;;;;;;25.75;25.75;;;;;;;;4990543;28;45513;-74
2021/09/04 05:17:52;;;;;;;;;24.75;23.00;;;;;;;;4991463;28;45274;-74
2021/09/04 05:20:17;;;;;;;;;24.00;20.50;;;;;;;;4993549;28;45304;-73
2021/09/04 05:22:45;;;;;;;;;19.50;18.00;;;;;;;;4991254;28;45620;-74
2021/09/04 05:25:10;;;;;;;;;26.25;22.75;;;;;;;;4991471;28;45323;-74
2021/09/04 05:27:35;;;;;;;;;20.25;18.50;;;;;;;;4991227;28;46973;-74
2021/09/04 05:30:00;;;;;;;;;21.00;17.75;;;;;;;;4992070;28;45464;-74
2021/09/04 05:32:26;;;;;;;;;22.00;18.50;;;;;;;;4975192;28;45533;-74
2021/09/04 05:34:51;;;;;;;;;21.75;17.75;;;;;;;;4991768;28;45259;-74
2021/09/04 05:37:17;;;;;;;;;21.50;18.75;;;;;;;;4990995;28;46416;-74
2021/09/04 05:39:42;;;;;;;;;16.75;15.25;;;;;;;;4990861;28;45272;-74
2021/09/04 05:42:07;;;;;;;;;19.50;18.75;;;;;;;;4989554;28;45480;-74
2021/09/04 05:44:32;;;;;;;;;21.00;21.00;;;;;;;;4992144;28;45418;-74
2021/09/04 05:46:58;;;;;;;;;28.25;24.75;;;;;;;;4985943;28;45447;-74
2021/09/04 05:49:23;;;;;;;;;19.75;19.75;;;;;;;;4990928;28;45354;-75
2021/09/04 05:51:48;;;;;;;;;21.50;21.50;;;;;;;;4991065;28;45379;-71
2021/09/04 05:54:13;;;;;;;;;25.25;23.75;;;;;;;;4991099;28;45382;-74
2021/09/04 05:56:38;;;;;;;;;23.50;17.50;;;;;;;;4991219;28;46572;-72
2021/09/04 05:59:04;;;;;;;;;19.50;17.75;;;;;;;;4992451;28;45334;-75
2021/09/04 06:01:29;;;;;;;;;22.25;21.25;;;;;;;;4990833;28;45377;-74
2021/09/04 06:03:57;;;;;;;;;23.00;20.75;;;;;;;;4990966;28;45345;-76
2021/09/04 06:06:22;;;;;;;;;23.50;21.00;;;;;;;;4990855;28;46032;-75
2021/09/04 06:08:48;;;;;;;;;23.50;21.50;;;;;;;;4991426;28;45415;-75
2021/09/04 06:11:13;;;;;;;;;23.50;19.75;;;;;;;;4994041;28;45369;-73
2021/09/04 06:13:38;;;;;;;;;26.75;23.00;;;;;;;;4990093;28;45283;-72
2021/09/04 06:16:03;;;;;;;;;23.50;21.75;;;;;;;;4990494;28;46130;-74
2021/09/04 06:18:29;;;;;;;;;27.00;22.75;;;;;;;;4990724;28;45252;-74
2021/09/04 06:20:54;;;;;;;;;29.75;26.25;;;;;;;;4989737;28;45239;-73
2021/09/04 06:23:19;;;;;;;;;25.00;23.00;;;;;;;;4992493;28;45445;-75
2021/09/04 06:25:44;;;;;;;;;24.75;24.00;;;;;;;;4987141;28;45519;-73
2021/09/04 06:28:09;;;;;;;;;21.75;19.75;;;;;;;;4988247;28;45352;-74
2021/09/04 06:30:35;;;;;;;;;28.00;28.00;;;;;;;;4990050;28;45513;-73
2021/09/04 06:33:01;;;;;;;;;32.00;27.50;;;;;;;;4990361;28;45531;-75
2021/09/04 06:35:26;;;;;;;;;27.50;23.50;;;;;;;;4992294;28;45414;-74
2021/09/04 06:37:51;;;;;;;;;27.75;26.50;;;;;;;;4990504;28;45367;-73
2021/09/04 06:40:16;;;;;;;;;26.75;26.75;;;;;;;;4972375;28;45483;-74
2021/09/04 06:42:44;;;;;;;;;29.00;27.50;;;;;;;;4990163;28;45482;-74
2021/09/04 06:45:10;;;;;;;;;25.75;25.75;;;;;;;;4990242;28;46384;-74
2021/09/04 06:47:35;;;;;;;;;25.50;24.00;;;;;;;;4990754;28;45635;-74
2021/09/04 06:50:00;;;;;;;;;27.50;24.00;;;;;;;;4992063;28;45346;-74
2021/09/04 06:52:25;;;;;;;;;42.25;34.00;;;;;;;;4990230;28;45208;-74
2021/09/04 06:54:51;;;;;;;;;33.75;31.00;;;;;;;;4990349;28;45267;-74
2021/09/04 06:57:16;;;;;;;;;39.00;32.50;;;;;;;;4990586;28;47936;-73
2021/09/04 06:59:41;;;;;;;;;43.75;38.00;;;;;;;;4991242;28;45524;-73
2021/09/04 07:02:06;;;;;;;;;33.50;30.50;;;;;;;;4990428;28;45311;-74
2021/09/04 07:04:31;;;;;;;;;43.75;32.25;;;;;;;;4988489;28;46583;-73
2021/09/04 07:07:01;;;;;;;;;27.00;23.50;;;;;;;;4989857;28;45618;-73
2021/09/04 07:09:27;;;;;;;;;33.50;31.00;;;;;;;;4990031;28;45508;-72
2021/09/04 07:11:52;;;;;;;;;28.75;25.25;;;;;;;;4989209;28;45508;-74
2021/09/04 07:14:17;;;;;;;;;46.00;37.00;;;;;;;;4991689;28;46249;-76
2021/09/04 07:16:42;;;;;;;;;31.50;29.25;;;;;;;;4989686;28;45307;-75
2021/09/04 07:19:07;;;;;;;;;32.50;32.25;;;;;;;;4990029;28;45498;-75
2021/09/04 07:21:32;;;;;;;;;35.75;31.75;;;;;;;;4971901;28;45398;-74
2021/09/04 07:23:58;;;;;;;;;37.00;31.00;;;;;;;;4989799;28;46430;-75
2021/09/04 07:26:23;;;;;;;;;34.75;30.75;;;;;;;;4991063;28;45468;-74
2021/09/04 07:28:48;;;;;;;;;36.50;31.50;;;;;;;;4989090;28;45256;-75
2021/09/04 07:31:13;;;;;;;;;34.75;31.00;;;;;;;;4988924;28;45448;-75
2021/09/04 07:33:39;;;;;;;;;34.25;31.25;;;;;;;;4989440;28;46066;-75
2021/09/04 07:36:08;;;;;;;;;28.75;26.75;;;;;;;;4988396;28;45453;-74
2021/09/04 07:38:33;;;;;;;;;33.75;32.25;;;;;;;;4993007;28;45170;-74
2021/09/04 07:40:59;;;;;;;;;37.00;32.75;;;;;;;;4991939;28;45408;-74
2021/09/04 07:43:24;;;;;;;;;43.25;34.75;;;;;;;;4990705;28;45915;-73
2021/09/04 07:45:49;;;;;;;;;38.50;32.25;;;;;;;;4992172;28;45456;-74
2021/09/04 07:48:14;;;;;;;;;35.25;32.75;;;;;;;;4992406;28;46111;-74
2021/09/04 07:50:39;;;;;;;;;32.50;30.00;;;;;;;;4992635;28;45404;-74
2021/09/04 07:53:05;;;;;;;;;36.75;31.00;;;;;;;;4993676;28;46302;-73
2021/09/04 07:55:30;;;;;;;;;37.50;33.75;;;;;;;;4991583;28;45387;-75
2021/09/04 07:57:55;;;;;;;;;38.00;31.75;;;;;;;;4991907;28;45481;-74
2021/09/04 08:00:20;;;;;;;;;31.00;28.75;;;;;;;;4991034;28;47133;-74
2021/09/04 08:02:45;;;;;;;;;34.75;31.75;;;;;;;;4991184;28;46202;-73
2021/09/04 08:05:11;;;;;;;;;33.75;31.75;;;;;;;;4993410;28;45444;-74
2021/09/04 08:07:36;;;;;;;;;42.25;33.25;;;;;;;;4991650;28;45485;-74
2021/09/04 08:10:02;;;;;;;;;31.50;30.75;;;;;;;;4991231;28;45354;-74
2021/09/04 08:12:28;;;;;;;;;33.75;30.00;;;;;;;;4991423;28;46197;-73
2021/09/04 08:14:53;;;;;;;;;38.25;35.75;;;;;;;;4991360;28;45345;-74
2021/09/04 08:17:18;;;;;;;;;36.50;31.00;;;;;;;;4994198;28;45412;-73
2021/09/04 08:19:43;;;;;;;;;34.50;32.75;;;;;;;;4990576;28;45827;-73
2021/09/04 08:22:09;;;;;;;;;38.50;34.75;;;;;;;;4990346;28;45903;-74
2021/09/04 08:24:34;;;;;;;;;39.25;34.50;;;;;;;;4991320;28;45401;-74
2021/09/04 08:26:59;;;;;;;;;32.00;31.50;;;;;;;;4991714;28;45429;-73
2021/09/04 08:29:25;;;;;;;;;38.25;33.25;;;;;;;;4993312;28;45521;-73
2021/09/04 08:31:50;;;;;;;;;35.00;31.00;;;;;;;;4972742;28;45900;-74
2021/09/04 08:34:15;;;;;;;;;33.75;30.00;;;;;;;;4989979;28;45270;-73
2021/09/04 08:36:41;;;;;;;;;27.50;27.00;;;;;;;;4990505;28;45306;-74
2021/09/04 08:39:06;;;;;;;;;35.25;31.00;;;;;;;;4972492;28;45467;-72
2021/09/04 08:41:32;;;;;;;;;34.25;30.00;;;;;;;;4991683;28;47242;-73
2021/09/04 08:43:58;;;;;;;;;31.00;29.50;;;;;;;;4991122;28;45400;-73
2021/09/04 08:46:23;;;;;;;;;34.75;31.25;;;;;;;;4990124;28;45392;-74
2021/09/04 08:48:49;;;;;;;;;31.75;30.00;;;;;;;;4988964;28;45369;-74
2021/09/04 08:51:14;;;;;;;;;27.50;27.00;;;;;;;;4990538;28;46105;-74
2021/09/04 08:53:39;;;;;;;;;30.75;29.75;;;;;;;;4990656;28;45653;-73
2021/09/04 08:56:07;;;;;;;;;38.25;33.75;;;;;;;;4992803;28;45368;-74
2021/09/04 08:58:32;;;;;;;;;36.75;33.25;;;;;;;;4988991;28;45450;-72
2021/09/04 09:00:57;;;;;;;;;36.25;32.00;;;;;;;;4989037;28;46433;-73
2021/09/04 09:03:28;;;;;;;;;36.00;32.00;;;;;;;;4972671;28;47634;-72
2021/09/04 09:06:00;;;;;;;;;42.75;34.75;;;;;;;;4990746;28;45223;-74
2021/09/04 09:08:27;;;;;;;;;36.75;33.25;;;;;;;;4988930;28;45289;-72
2021/09/04 09:10:53;;;;;;;;;38.50;33.00;;;;;;;;4990343;28;47190;-75
2021/09/04 09:13:20;;;;;;;;;40.25;34.50;;;;;;;;4989651;28;45575;-76
2021/09/04 09:15:45;;;;;;;;;34.25;32.00;;;;;;;;4989883;28;45367;-76
2021/09/04 09:18:14;;;;;;;;;31.75;31.00;;;;;;;;4990371;28;45405;-71
2021/09/04 09:20:41;;;;;;;;;34.50;30.25;;;;;;;;4990804;28;45232;-74
2021/09/04 09:23:13;;;;;;;;;30.75;28.25;;;;;;;;4989723;28;45296;-74
2021/09/04 09:25:40;;;;;;;;;41.25;33.50;;;;;;;;4989797;28;45341;-75
2021/09/04 09:28:13;;;;;;;;;30.75;29.75;;;;;;;;4989580;28;45438;-74
2021/09/04 09:30:48;;;;;;;;;31.25;28.25;;;;;;;;4989888;28;46295;-74
2021/09/04 09:33:14;;;;;;;;;46.25;37.25;;;;;;;;4972769;28;46096;-75
2021/09/04 09:35:44;;;;;;;;;35.75;32.00;;;;;;;;4991069;28;45501;-76
2021/09/04 09:38:10;;;;;;;;;31.25;30.00;;;;;;;;4990207;27;45209;-73
2021/09/04 09:40:37;;;;;;;;;30.25;29.00;;;;;;;;4989376;28;45542;-74
2021/09/04 09:43:11;;;;;;;;;29.25;28.25;;;;;;;;4989316;28;45410;-74
2021/09/04 09:45:37;;;;;;;;;31.00;28.50;;;;;;;;4990238;28;45429;-76
2021/09/04 09:48:02;;;;;;;;;32.00;29.00;;;;;;;;4990195;28;45426;-76
2021/09/04 09:50:28;;;;;;;;;30.50;27.50;;;;;;;;4991167;28;45462;-76
2021/09/04 09:52:53;;;;;;;;;29.00;28.50;;;;;;;;4990039;28;45532;-75
2021/09/04 09:55:19;;;;;;;;;35.00;32.00;;;;;;;;4990007;28;45397;-75
2021/09/04 09:57:44;;;;;;;;;29.25;25.25;;;;;;;;4990338;28;45511;-74
2021/09/04 10:00:10;;;;;;;;;28.75;26.25;;;;;;;;4989574;28;45574;-76
2021/09/04 10:02:36;;;;;;;;;37.00;31.25;;;;;;;;4990636;28;45356;-74
2021/09/04 10:05:01;;;;;;;;;37.50;32.25;;;;;;;;4991592;28;45378;-73
2021/09/04 10:07:27;;;;;;;;;27.50;26.25;;;;;;;;4987156;28;47273;-78
2021/09/04 10:09:53;;;;;;;;;26.50;25.50;;;;;;;;4983185;27;46431;-77
2021/09/04 10:12:18;;;;;;;;;27.50;23.00;;;;;;;;4986926;27;45609;-76
2021/09/04 10:14:45;;;;;;;;;28.25;27.50;;;;;;;;4989910;28;45501;-76
2021/09/04 10:17:11;;;;;;;;;32.00;30.00;;;;;;;;4989917;28;45421;-81
2021/09/04 10:19:38;;;;;;;;;27.75;23.50;;;;;;;;4971168;28;46079;-79
2021/09/04 10:22:05;;;;;;;;;25.00;24.50;;;;;;;;4990330;28;45451;-78
2021/09/04 10:24:42;;;;;;;;;25.50;24.25;;;;;;;;4989452;28;45612;-76
2021/09/04 10:27:08;;;;;;;;;24.50;21.75;;;;;;;;4989087;28;45347;-78
2021/09/04 10:29:39;;;;;;;;;25.50;24.00;;;;;;;;4989681;28;46229;-77
2021/09/04 10:32:05;;;;;;;;;28.25;27.25;;;;;;;;4990790;28;45557;-76
2021/09/04 10:34:37;;;;;;;;;22.25;21.75;;;;;;;;4989305;28;45325;-76
2021/09/04 10:37:11;;;;;;;;;24.75;23.00;;;;;;;;4988962;28;46141;-78
2021/09/04 10:39:55;;;;;;;;;22.50;22.25;;;;;;;;4988736;28;47027;-76
2021/09/04 10:42:25;;;;;;;;;25.00;22.00;;;;;;;;4989171;28;45460;-78
2021/09/04 10:44:53;;;;;;;;;20.00;20.00;;;;;;;;4988878;28;45354;-75
2021/09/04 10:47:19;;;;;;;;;24.25;23.25;;;;;;;;4990701;28;45421;-76
2021/09/04 10:49:45;;;;;;;;;23.25;23.25;;;;;;;;4988604;28;46166;-76
2021/09/04 10:52:11;;;;;;;;;25.25;23.50;;;;;;;;4989114;28;45344;-75
2021/09/04 10:54:38;;;;;;;;;25.00;23.00;;;;;;;;4987735;28;45651;-74
2021/09/04 10:57:13;;;;;;;;;24.75;23.50;;;;;;;;4987438;28;45667;-76
2021/09/04 10:59:57;;;;;;;;;27.00;23.50;;;;;;;;4990058;27;45739;-74
2021/09/04 11:02:22;;;;;;;;;21.50;20.50;;;;;;;;4986618;28;45490;-75
2021/09/04 11:04:57;;;;;;;;;28.00;24.75;;;;;;;;4988376;28;45430;-75
2021/09/04 11:07:40;;;;;;;;;25.50;23.50;;;;;;;;4988534;28;45534;-73
2021/09/04 11:10:22;;;;;;;;;29.25;26.00;;;;;;;;4988389;28;45440;-73
2021/09/04 11:13:03;;;;;;;;;24.00;23.25;;;;;;;;4987842;28;45357;-73
2021/09/04 11:15:28;;;;;;;;;23.00;19.25;;;;;;;;4988551;28;45313;-76
2021/09/04 11:17:53;;;;;;;;;26.50;25.00;;;;;;;;4970216;28;45581;-74
2021/09/04 11:20:19;;;;;;;;;21.00;19.50;;;;;;;;4989684;28;46173;-73
2021/09/04 11:22:45;;;;;;;;;22.00;21.00;;;;;;;;4988040;28;45467;-73
2021/09/04 11:25:12;;;;;;;;;24.00;22.00;;;;;;;;4988391;28;45344;-75
2021/09/04 11:27:43;;;;;;;;;26.75;24.50;;;;;;;;4987918;28;45263;-75
2021/09/04 11:30:08;;;;;;;;;23.75;22.00;;;;;;;;4987687;28;45685;-72
2021/09/04 11:32:33;;;;;;;;;19.00;16.50;;;;;;;;4988529;28;45352;-74
2021/09/04 11:35:00;;;;;;;;;19.50;18.75;;;;;;;;4987525;28;45669;-75
2021/09/04 11:37:32;;;;;;;;;22.75;22.25;;;;;;;;4986534;28;45423;-75
2021/09/04 11:39:59;;;;;;;;;25.00;24.00;;;;;;;;4988059;28;46371;-72
2021/09/04 11:42:28;;;;;;;;;23.00;21.50;;;;;;;;4988193;28;45306;-75
2021/09/04 11:44:55;;;;;;;;;25.00;22.00;;;;;;;;4987895;28;45291;-75
2021/09/04 11:47:22;;;;;;;;;20.25;20.25;;;;;;;;4989182;28;45471;-74
2021/09/04 11:49:55;;;;;;;;;20.00;18.75;;;;;;;;4986874;28;45416;-73
2021/09/04 11:52:21;;;;;;;;;18.00;18.00;;;;;;;;4987356;28;45651;-73
2021/09/04 11:54:47;;;;;;;;;19.75;18.75;;;;;;;;4987884;28;45350;-74
2021/09/04 11:57:22;;;;;;;;;22.50;20.50;;;;;;;;4987815;28;45363;-74
2021/09/04 12:00:00;;;;;;;;;19.50;16.75;;;;;;;;4987595;28;47490;-74
2021/09/04 12:02:26;;;;;;;;;21.00;18.75;;;;;;;;4985291;28;45551;-74
2021/09/04 12:04:51;;;;;;;;;18.50;18.50;;;;;;;;4969629;28;45400;-74
2021/09/04 12:07:16;;;;;;;;;21.50;20.50;;;;;;;;4987869;28;45450;-72
2021/09/04 12:09:43;;;;;;;;;21.25;18.00;;;;;;;;4987003;28;47281;-75
2021/09/04 12:12:08;;;;;;;;;16.75;16.00;;;;;;;;4985898;28;45335;-74
2021/09/04 12:14:34;;;;;;;;;17.25;17.25;;;;;;;;4988960;28;45268;-74
2021/09/04 12:16:59;;;;;;;;;17.25;16.00;;;;;;;;4988408;28;45382;-74
2021/09/04 12:19:25;;;;;;;;;14.00;13.25;;;;;;;;4987633;28;47036;-74
2021/09/04 12:21:51;;;;;;;;;16.25;14.25;;;;;;;;4987561;28;45312;-73
2021/09/04 12:24:17;;;;;;;;;10.50;10.50;;;;;;;;4988607;28;45425;-73
2021/09/04 12:26:48;;;;;;;;;11.25;10.25;;;;;;;;4990419;28;45299;-73
2021/09/04 12:29:14;;;;;;;;;12.25;12.25;;;;;;;;4992139;28;46590;-73
2021/09/04 12:31:42;;;;;;;;;13.25;12.25;;;;;;;;4989540;28;45294;-73
2021/09/04 12:34:08;;;;;;;;;15.25;13.75;;;;;;;;4990256;28;45449;-73
2021/09/04 12:36:34;;;;;;;;;12.25;11.00;;;;;;;;4990072;28;45451;-73
2021/09/04 12:39:11;;;;;;;;;12.25;12.25;;;;;;;;4990077;28;45315;-73
2021/09/04 12:41:36;;;;;;;;;12.50;12.50;;;;;;;;4990543;28;45398;-72
2021/09/04 12:44:06;;;;;;;;;9.50;9.50;;;;;;;;4991689;28;45306;-74
2021/09/04 12:46:34;;;;;;;;;13.00;10.50;;;;;;;;4989387;28;45498;-74
2021/09/04 12:49:16;;;;;;;;;14.75;14.00;;;;;;;;4989622;28;45372;-73
2021/09/04 12:51:41;;;;;;;;;45.00;37.75;;;;;;;;4988244;28;45537;-74
2021/09/04 12:54:07;;;;;;;;;20.00;19.25;;;;;;;;4988915;28;45481;-73
2021/09/04 12:56:33;;;;;;;;;18.25;18.25;;;;;;;;4991924;28;45434;-74
2021/09/04 12:59:05;;;;;;;;;12.50;11.75;;;;;;;;4990988;28;47186;-73
2021/09/04 13:01:30;;;;;;;;;10.00;10.00;;;;;;;;4989381;28;45507;-74
2021/09/04 13:03:55;;;;;;;;;12.00;11.50;;;;;;;;4990052;28;45515;-74
2021/09/04 13:06:21;;;;;;;;;9.75;9.75;;;;;;;;4990179;28;45296;-74
2021/09/04 13:08:46;;;;;;;;;11.50;9.50;;;;;;;;4990046;28;45525;-73
2021/09/04 13:11:11;;;;;;;;;12.50;12.50;;;;;;;;4991769;28;45424;-74
2021/09/04 13:13:36;;;;;;;;;15.00;14.00;;;;;;;;4990103;28;45398;-74
2021/09/04 13:16:01;;;;;;;;;12.25;11.50;;;;;;;;4989547;28;45480;-73
2021/09/04 13:18:27;;;;;;;;;12.00;12.00;;;;;;;;4989802;28;46651;-73
2021/09/04 13:20:52;;;;;;;;;10.75;10.75;;;;;;;;4989532;28;45518;-74
2021/09/04 13:23:17;;;;;;;;;12.25;12.25;;;;;;;;4992022;28;45513;-73
2021/09/04 13:25:42;;;;;;;;;11.00;11.00;;;;;;;;4989679;28;45433;-73
2021/09/04 13:28:08;;;;;;;;;10.50;10.00;;;;;;;;4990186;28;45991;-73
2021/09/04 13:30:33;;;;;;;;;10.75;9.75;;;;;;;;4987867;28;45411;-74
2021/09/04 13:32:58;;;;;;;;;11.00;11.00;;;;;;;;4989044;28;45355;-73
2021/09/04 13:35:23;;;;;;;;;12.00;10.25;;;;;;;;4991412;28;45379;-73
2021/09/04 13:37:48;;;;;;;;;12.25;11.25;;;;;;;;4989547;28;46153;-73
2021/09/04 13:40:14;;;;;;;;;12.50;12.50;;;;;;;;4990279;28;45418;-73
2021/09/04 13:42:39;;;;;;;;;15.75;13.75;;;;;;;;4990451;28;45387;-74
2021/09/04 13:45:04;;;;;;;;;16.25;13.50;;;;;;;;4990081;28;45546;-73
2021/09/04 13:47:30;;;;;;;;;15.75;13.25;;;;;;;;4991437;28;46016;-73
2021/09/04 13:49:55;;;;;;;;;14.00;12.75;;;;;;;;4990081;28;45247;-73
2021/09/04 13:52:20;;;;;;;;;10.50;10.00;;;;;;;;4989658;28;45379;-73
2021/09/04 13:54:45;;;;;;;;;12.75;12.75;;;;;;;;4989796;28;45358;-74
2021/09/04 13:57:11;;;;;;;;;10.67;10.67;;;;;;;;4990086;28;46169;-74
2021/09/04 13:59:36;;;;;;;;;12.50;12.50;;;;;;;;4991173;28;45444;-74
2021/09/04 14:02:01;;;;;;;;;16.00;13.00;;;;;;;;4991610;28;45251;-74
2021/09/04 14:04:26;;;;;;;;;18.00;14.00;;;;;;;;4990293;28;45424;-74
2021/09/04 14:06:51;;;;;;;;;18.50;15.50;;;;;;;;4990243;28;46025;-73
2021/09/04 14:09:17;;;;;;;;;20.25;19.50;;;;;;;;4988861;28;45232;-73